Rowley, MA

4:31 PM EDT on September 30, 2014 (GMT -0400)
Middle St. | Change Station
CLOSE
Current Station
Personal Weather Station
Location: Newburyport, MA
Elevation: 30 ft
Nearby Weather Stations

Elev 30 ft 42.81 °N, 70.87 °W | Updated 4 minutes ago

Overcast
Overcast
58.0 °F
Feels Like 58.0 °F
N
0.0
Wind Variable Wind from SE
Gusts 0.0 mph

Today
High -- | Low -- °F
--% Chance of Precip.
Yesterday
High -- | Low -- °F
Precip. -- in
6:39 AM 6:26 PM
Waxing Crescent, 40% visible
Pressure 29.99 in
Visibility 8.0 miles
Clouds Overcast 500 ft
Dew Point 57 °F
Humidity 95%
Rainfall 0.02 in
Snow Depth Not available.
UV 1 out of 12
Pollen 1.20 out of 12
Ozone Good
PM2.5 Good
Flu Activity Not available.
METAR KBVY 301953Z AUTO 03007KT 8SM -RA OVC005 13/12 A3000 RMK AO2 SLP154 P0001 T01330117

More Conditions Fewer Conditions

Pressure 29.99 in
Visibility 8.0 miles
Clouds Overcast 500 ft
Dew Point 57 °F
Humidity 95%
Rainfall 0.02 in
Snow Depth Not available.
UV 1 out of 12
Pollen 1.20 out of 12
Ozone Good
PM2.5 Good
Flu Activity Not available.
METAR KBVY 301953Z AUTO 03007KT 8SM -RA OVC005 13/12 A3000 RMK AO2 SLP154 P0001 T01330117

More Conditions Fewer Conditions

10-Day Weather Forecast

Almanac

Astronomy

Sep. 30, 2014 Rise Set
Actual Time 6:39 AM EDT 6:26 PM EDT
Civil Twilight 6:11 AM EDT 6:54 PM EDT
Nautical Twilight 5:38 AM EDT 7:27 PM EDT
Astronomical Twilight 5:05 AM EDT 8:00 PM EDT
Moon 12:51 PM EDT 10:47 PM EDT
Length of Visible Light 12h 43m
Length of Day
11h 47m
Tomorrow will be 2m 52s shorter.
Waxing Crescent, 40% of the Moon is Illuminated
Today
Waxing Crescent
Oct 1
First Quarter
Oct 8
Full
Oct 15
Last Quarter
Oct 23
New

Today's Extremes

State Highs State Lows

Community

WunderPhotos

Upload Photos

1,757,743 photos uploaded!

Nearby

Air Quality

  Air Quality AQ Index Pollutant
Yesterday Good
PM2.5
Yesterday Good
OZONE
Current Good
OZONE
Current Good
PM2.5
Tuesday Good
PM2.5
Tuesday Good
OZONE
Wednesday Good
PM2.5
Wednesday Good
OZONE

Snow Depth

Station Depth Elevation
No new snow has been reported.

Earthquake Activity

City Distance Mag. Time & Date
No recent earthquake activity has been reported nearby.
Minimum magnitude displayed is 2.5.

Coastal Water Temperatures

Place Temperature
Boston, MA 63.0 °F
Fall River, MA 68.0 °F

Nearby Weather Stations